Terminal Aerodrome Forecast
Issued by NWS Tampa Bay Area, FL

Home | Current Version | Previous Version | Text Only | Print | Product List | Glossary Off
Versions: 1 2 3 4 5 6 7 8 9 10 11 12 13

757
FTUS42 KTBW 231121
TAFSRQ
TAF
KSRQ 231121Z 2312/2412 12007KT P6SM VCSH SCT040 BKN120
     FM231400 15010KT 5SM SHRA VCTS SCT015 BKN025CB OVC070
     FM231600 23010KT 6SM SHRA VCTS SCT020CB BKN040
     FM232100 28007KT 6SM SHRA VCTS SCT020CB BKN035
     FM240200 04005KT P6SM VCSH BKN020 OVC035=

USA.gov is the U.S. government's official web portal to all federal, state and local government web resources and services.